Rochester, MN (55901)

2:33 PM CDT on April 27, 2017 (GMT -0500)
Crescent Park | | Change Station

Elev 1025 ft 44.06 °N, 92.48 °W | Updated 3 minutes ago

Overcast
Overcast
39.1 °F
Feels Like 36 °F
N
4.5
Wind Variable Wind from SW
Gusts 10.1 mph

Today
High -- | Low -- °F
--% Chance of Precip.
Yesterday
High -- | Low -- °F
Precip. -- in
Pressure 29.59 in
Visibility 10.0 miles
Clouds Overcast 1900 ft
Windchill 36 °F
Dew Point 23 °F
Humidity 53%
Rainfall 0.00 in
Snow Depth Not available.
6:06 AM 8:08 PM
Waxing Crescent, 3% visible
METAR K9MN 271912Z AUTO 26013G22KT 200V290 10SM OVC019 02/M01 A2959 RMK AO1 T00231014
Pressure 29.59 in
Visibility 10.0 miles
Clouds Overcast 1900 ft
Windchill 36 °F
Dew Point 23 °F
Humidity 53%
Rainfall 0.00 in
Snow Depth Not available.
6:06 AM 8:08 PM
Waxing Crescent, 3% visible
METAR K9MN 271912Z AUTO 26013G22KT 200V290 10SM OVC019 02/M01 A2959 RMK AO1 T00231014

Get Severe Weather Alerts

Thanks for signing up!

Be on the lookout for a verification email in your inbox.

You'll start receiving the daily forecast at 8 AM.

×

10-Day Weather Forecast

Almanac

Astronomy

Apr. 27, 2017 Rise Set
Actual Time
Civil Twilight
Nautical Twilight
Astronomical Twilight
Moon
Length of Visible Light
Length of Day
Tomorrow will be .
, % of the Moon is Illuminated

Today's Extremes

State Highs State Lows

Community

WunderPhotos

WunderBlog® & News

Nearby

Air Quality

  Air Quality AQ Index Pollutant
Not available.

Snow Depth

Station Depth Elevation

Earthquake Activity

City Distance Mag. Time & Date
Minimum magnitude displayed is 2.5.

Coastal Water Temperatures

Place Temperature

Stations

Nearby Weather Stations

Station Location Temp. Windchill Dew Point Humidity Wind Precip. Elev Updated Type
                   

Watches & Warnings

There are currently no watches in effect.